Time;durP1;ratioP1;P1;durP2;ratioP2;P2;SDS_P1;SDS_P2;PMS_P1;PMS_P2;Temp;Humidity;BMP_temperature;BMP_pressure;BME280_temperature;BME280_humidity;BME280_pressure;Samples;Min_cycle;Max_cycle;Signal;HPM_P1;HPM_P2
2023/12/21 00:00:11;;;;;;;;;73.75;60.00;;;;;4.88;53.27;99176.50;5029560;28;8934;-75
2023/12/21 00:03:01;;;;;;;;;74.75;59.25;;;;;4.85;53.59;99169.59;5029457;28;9672;-75
2023/12/21 00:05:30;;;;;;;;;73.50;57.50;;;;;4.92;53.57;99178.22;5014027;28;8891;-76
2023/12/21 00:07:59;;;;;;;;;77.75;60.50;;;;;4.78;53.97;99175.69;5012840;28;8845;-76
2023/12/21 00:10:29;;;;;;;;;72.75;58.50;;;;;4.90;53.84;99174.75;4986200;28;9578;-77
2023/12/21 00:12:58;;;;;;;;;73.00;58.75;;;;;4.93;53.26;99169.56;4985865;28;8846;-80
2023/12/21 00:15:27;;;;;;;;;72.50;58.75;;;;;4.96;53.33;99174.72;5012206;28;8984;-75
2023/12/21 00:17:57;;;;;;;;;71.75;56.50;;;;;4.68;54.09;99174.84;5027294;28;8889;-77
2023/12/21 00:20:25;;;;;;;;;72.50;57.25;;;;;4.45;54.59;99174.03;5027055;28;8854;-74
2023/12/21 00:22:55;;;;;;;;;73.75;57.50;;;;;4.20;55.86;99178.41;5010334;28;8877;-78
2023/12/21 00:25:24;;;;;;;;;69.75;55.00;;;;;4.43;55.01;99173.16;5014845;28;8908;-76
2023/12/21 00:27:55;;;;;;;;;76.00;59.75;;;;;4.48;55.44;99179.25;5016524;28;8854;-75
2023/12/21 00:30:24;;;;;;;;;64.75;54.50;;;;;4.38;55.16;99178.38;5015328;28;10053;-77
2023/12/21 00:32:53;;;;;;;;;69.00;56.75;;;;;4.52;54.93;99173.16;5030134;28;8851;-77
2023/12/21 00:35:22;;;;;;;;;70.25;58.00;;;;;4.60;54.57;99168.78;5031617;28;9158;-79
2023/12/21 00:37:52;;;;;;;;;68.00;53.25;;;;;4.45;55.28;99181.84;5031577;28;8864;-77
2023/12/21 00:40:20;;;;;;;;;69.50;57.50;;;;;4.64;54.55;99178.34;5024949;28;8848;-75
2023/12/21 00:42:50;;;;;;;;;67.75;53.50;;;;;4.74;54.40;99181.78;5013458;28;8871;-76
2023/12/21 00:45:20;;;;;;;;;62.25;50.25;;;;;4.57;55.34;99187.88;5046265;28;8844;-75
2023/12/21 00:47:49;;;;;;;;;69.25;56.75;;;;;4.65;54.77;99185.25;5029214;28;8855;-75
2023/12/21 00:50:19;;;;;;;;;67.25;54.75;;;;;4.74;54.49;99192.19;5013188;28;8862;-78
2023/12/21 00:52:48;;;;;;;;;67.75;53.75;;;;;4.85;53.99;99189.53;5013748;28;8896;-77
2023/12/21 00:55:17;;;;;;;;;63.75;53.75;;;;;4.93;53.85;99190.38;5014794;28;8961;-74
2023/12/21 00:57:46;;;;;;;;;66.25;53.50;;;;;5.02;53.88;99187.75;5029474;28;8859;-78
2023/12/21 01:00:16;;;;;;;;;68.25;54.75;;;;;5.12;53.58;99197.25;5012535;28;8875;-75
2023/12/21 01:02:46;;;;;;;;;70.00;56.75;;;;;5.11;53.42;99194.66;5046397;28;8949;-76
2023/12/21 01:05:15;;;;;;;;;69.00;55.25;;;;;5.07;53.17;99188.56;5012278;28;9747;-75
2023/12/21 01:07:44;;;;;;;;;67.50;54.50;;;;;5.00;53.49;99186.91;5009887;28;8870;-75
2023/12/21 01:10:14;;;;;;;;;68.75;55.75;;;;;5.03;53.63;99189.47;5043039;28;9780;-76
2023/12/21 01:12:43;;;;;;;;;64.50;53.75;;;;;4.99;53.51;99189.50;5033976;28;8864;-77
2023/12/21 01:15:12;;;;;;;;;66.25;53.75;;;;;4.94;53.88;99194.72;4999620;28;8855;-76
2023/12/21 01:17:41;;;;;;;;;65.75;53.75;;;;;5.07;53.49;99192.94;5032334;28;8870;-75
2023/12/21 01:20:12;;;;;;;;;62.50;52.00;;;;;5.09;53.30;99194.69;5011847;28;9622;-75
2023/12/21 01:22:41;;;;;;;;;68.75;55.50;;;;;5.19;53.41;99200.72;5017042;28;8882;-75
2023/12/21 01:25:10;;;;;;;;;65.00;55.00;;;;;4.49;55.04;99193.97;5042034;28;8866;-77
2023/12/21 01:27:39;;;;;;;;;70.50;55.25;;;;;4.73;54.17;99199.16;5024191;28;8847;-78
2023/12/21 01:30:09;;;;;;;;;65.75;55.25;;;;;4.60;54.89;99197.41;4980025;28;8871;-78
2023/12/21 01:32:39;;;;;;;;;69.75;52.75;;;;;4.68;54.65;99194.81;5011830;28;8963;-77
2023/12/21 01:35:08;;;;;;;;;65.75;50.50;;;;;4.82;54.21;99200.84;5009209;28;8877;-79
2023/12/21 01:37:39;;;;;;;;;59.25;49.50;;;;;4.54;55.42;99206.09;4992057;28;8882;-76
2023/12/21 01:40:09;;;;;;;;;68.00;53.75;;;;;4.80;54.68;99199.13;5010648;28;8866;-76
2023/12/21 01:42:38;;;;;;;;;66.75;52.50;;;;;4.93;54.00;99198.22;4957464;28;8879;-77
2023/12/21 01:45:08;;;;;;;;;71.50;56.75;;;;;4.26;56.10;99199.22;5043980;28;8971;-77
2023/12/21 01:47:37;;;;;;;;;64.25;53.25;;;;;4.60;55.11;99199.16;5027667;28;8832;-76
2023/12/21 01:50:08;;;;;;;;;66.25;53.75;;;;;4.75;54.92;99202.59;5008944;28;8856;-78
2023/12/21 01:52:40;;;;;;;;;63.25;51.75;;;;;4.90;54.31;99200.81;5023255;28;8874;-77
2023/12/21 01:55:10;;;;;;;;;55.50;47.25;;;;;4.69;54.42;99197.41;5007762;28;8893;-77
2023/12/21 01:57:40;;;;;;;;;66.75;52.00;;;;;4.10;55.90;99201.81;5000865;28;8933;-77
2023/12/21 02:00:10;;;;;;;;;64.50;52.25;;;;;3.38;58.98;99204.31;5029091;28;8874;-76
2023/12/21 02:02:40;;;;;;;;;57.75;47.75;;;;;3.73;57.82;99199.22;5006814;28;8961;-77
2023/12/21 02:05:10;;;;;;;;;55.25;46.50;;;;;3.92;56.89;99188.81;5023874;28;8869;-76
2023/12/21 02:07:41;;;;;;;;;58.00;48.75;;;;;3.81;57.45;99180.13;5007843;28;8850;-77
2023/12/21 02:10:10;;;;;;;;;54.50;46.75;;;;;3.94;56.98;99176.66;5010585;28;8882;-75
2023/12/21 02:12:40;;;;;;;;;57.25;47.25;;;;;3.67;58.09;99173.19;5019730;28;8864;-77
2023/12/21 02:15:10;;;;;;;;;60.25;46.50;;;;;3.95;57.63;99175.81;5027072;28;9559;-75
2023/12/21 02:17:43;;;;;;;;;59.25;47.75;;;;;3.92;57.49;99183.59;5012113;28;8846;-74
2023/12/21 02:20:13;;;;;;;;;58.00;48.75;;;;;4.04;56.85;99186.22;5007101;28;8873;-77
2023/12/21 02:22:45;;;;;;;;;56.50;46.50;;;;;3.95;57.74;99170.63;4958659;28;8845;-76
2023/12/21 02:25:16;;;;;;;;;56.00;45.00;;;;;4.21;56.88;99156.75;5026217;28;8864;-79
2023/12/21 02:27:49;;;;;;;;;59.25;49.75;;;;;4.30;56.62;99160.19;5015583;28;8990;-76
2023/12/21 02:30:18;;;;;;;;;55.75;46.75;;;;;4.44;55.86;99151.50;4946187;28;9633;-77
2023/12/21 02:32:48;;;;;;;;;59.75;47.50;;;;;4.51;55.71;99158.41;5026769;28;8856;-77
2023/12/21 02:35:17;;;;;;;;;57.25;47.75;;;;;4.59;55.24;99154.03;5031294;28;8868;-75
2023/12/21 02:37:46;;;;;;;;;60.25;49.00;;;;;4.72;54.58;99147.06;5029687;28;8999;-75
2023/12/21 02:40:16;;;;;;;;;54.00;44.75;;;;;4.84;54.43;99143.53;5030570;28;8891;-75
2023/12/21 02:42:46;;;;;;;;;58.75;48.75;;;;;4.74;54.37;99148.78;5009474;28;8859;-76
2023/12/21 02:45:16;;;;;;;;;66.00;49.50;;;;;4.80;54.30;99144.44;5010332;28;9038;-78
2023/12/21 02:47:45;;;;;;;;;65.25;53.25;;;;;4.57;54.75;99141.03;5010225;28;8852;-77
2023/12/21 02:50:14;;;;;;;;;59.75;49.75;;;;;4.74;54.40;99147.94;5026135;28;8851;-77
2023/12/21 02:52:43;;;;;;;;;64.00;50.50;;;;;4.80;54.10;99147.91;5026420;28;8852;-76
2023/12/21 02:55:12;;;;;;;;;60.50;49.00;;;;;4.83;54.21;99145.28;5025964;28;8994;-76
2023/12/21 02:57:43;;;;;;;;;51.25;42.75;;;;;4.56;54.59;99148.84;5024928;28;8852;-74
2023/12/21 03:00:13;;;;;;;;;48.75;40.75;;;;;3.74;57.61;99145.50;5028643;28;8860;-77
2023/12/21 03:02:42;;;;;;;;;49.50;43.25;;;;;3.72;58.11;99142.88;4994128;28;8867;-76
2023/12/21 03:05:11;;;;;;;;;55.50;43.50;;;;;4.10;56.53;99135.94;5010480;28;8883;-76
2023/12/21 03:07:41;;;;;;;;;51.50;44.00;;;;;3.57;58.72;99141.13;5029139;28;8859;-76
2023/12/21 03:10:10;;;;;;;;;53.00;45.25;;;;;3.89;57.48;99137.69;5030815;28;9661;-76
2023/12/21 03:12:39;;;;;;;;;48.50;41.50;;;;;3.81;57.02;99136.81;5031367;28;8855;-74
2023/12/21 03:15:11;;;;;;;;;48.50;40.25;;;;;3.56;58.23;99130.72;5047050;28;8861;-77
2023/12/21 03:17:40;;;;;;;;;57.50;42.75;;;;;3.49;58.43;99132.47;5028607;28;8878;-76
2023/12/21 03:20:10;;;;;;;;;42.25;38.25;;;;;3.76;57.45;99138.56;5029177;28;8850;-77
2023/12/21 03:22:39;;;;;;;;;49.00;40.75;;;;;3.84;57.17;99125.56;5045761;28;8979;-75
2023/12/21 03:25:08;;;;;;;;;51.75;44.75;;;;;3.25;59.47;99125.47;5025890;28;8994;-75
2023/12/21 03:27:38;;;;;;;;;50.50;42.00;;;;;3.65;58.14;99122.09;5027739;28;9646;-75
2023/12/21 03:30:08;;;;;;;;;49.75;42.00;;;;;3.89;57.24;99126.41;5046965;28;8876;-75
2023/12/21 03:32:38;;;;;;;;;46.75;39.00;;;;;3.75;57.86;99126.41;5015927;28;8886;-76
2023/12/21 03:35:08;;;;;;;;;52.75;42.75;;;;;4.03;57.32;99134.19;5066040;28;8919;-76
2023/12/21 03:37:38;;;;;;;;;50.75;42.25;;;;;4.13;56.61;99138.50;5019870;28;8856;-74
2023/12/21 03:40:08;;;;;;;;;44.50;39.50;;;;;3.79;57.05;99135.97;5012848;28;8864;-77
2023/12/21 03:42:38;;;;;;;;;41.75;39.75;;;;;4.06;56.67;99135.06;4994746;28;8879;-77
2023/12/21 03:45:08;;;;;;;;;39.75;36.75;;;;;4.00;56.81;99135.09;5009772;28;8974;-76
2023/12/21 03:47:38;;;;;;;;;51.00;41.50;;;;;4.27;55.99;99139.38;5043644;28;8859;-75
2023/12/21 03:50:08;;;;;;;;;40.75;37.75;;;;;4.07;56.13;99122.94;5028562;28;8985;-75
2023/12/21 03:52:37;;;;;;;;;41.75;38.50;;;;;3.95;57.29;99126.41;5016984;28;8941;-76
2023/12/21 03:55:06;;;;;;;;;49.25;42.25;;;;;3.41;58.18;99121.16;5027556;28;8951;-74
2023/12/21 03:57:36;;;;;;;;;42.75;39.50;;;;;3.71;57.82;99128.13;5027008;28;8855;-76
2023/12/21 04:00:06;;;;;;;;;46.50;40.75;;;;;3.93;57.37;99126.41;5043340;28;8860;-78
2023/12/21 04:02:36;;;;;;;;;48.25;42.00;;;;;4.12;56.47;99126.41;5024900;28;8852;-76
2023/12/21 04:05:07;;;;;;;;;42.25;39.75;;;;;4.16;56.27;99112.50;5026010;28;8867;-76
2023/12/21 04:07:36;;;;;;;;;41.50;37.75;;;;;4.17;56.17;99115.13;5043445;28;8875;-77
2023/12/21 04:10:06;;;;;;;;;45.75;40.75;;;;;4.31;55.47;99127.22;5026672;28;8859;-77
2023/12/21 04:12:35;;;;;;;;;39.25;37.75;;;;;4.34;55.64;99125.47;4993252;28;8864;-77
2023/12/21 04:15:05;;;;;;;;;44.75;41.25;;;;;4.44;55.03;99121.13;4994379;28;8854;-76
2023/12/21 04:17:34;;;;;;;;;51.75;41.00;;;;;4.54;54.85;99129.75;5023842;28;8844;-78
2023/12/21 04:20:03;;;;;;;;;42.20;38.40;;;;;4.31;55.09;99128.09;5026529;28;8929;-76
2023/12/21 04:22:33;;;;;;;;;37.00;36.00;;;;;4.18;55.38;99127.22;5026939;28;8929;-76
2023/12/21 04:25:02;;;;;;;;;45.25;37.50;;;;;4.38;55.01;99123.75;5029601;28;8973;-77
2023/12/21 04:27:32;;;;;;;;;50.75;40.75;;;;;4.47;54.26;99120.22;4983776;28;8927;-76
2023/12/21 04:30:01;;;;;;;;;47.50;42.75;;;;;4.50;54.56;99121.09;5014181;28;8866;-77
2023/12/21 04:32:30;;;;;;;;;44.75;41.00;;;;;4.54;54.52;99129.75;5010572;28;8850;-77
2023/12/21 04:34:59;;;;;;;;;47.50;41.25;;;;;4.59;53.49;99117.59;5010391;28;8874;-76
2023/12/21 04:37:28;;;;;;;;;49.25;41.00;;;;;4.65;53.71;99121.91;5011848;28;8858;-76
2023/12/21 04:39:58;;;;;;;;;44.25;38.25;;;;;4.69;53.68;99119.28;5010418;28;8854;-75
2023/12/21 04:42:28;;;;;;;;;44.00;40.00;;;;;4.66;53.62;99127.13;4976868;28;9980;-77
2023/12/21 04:44:57;;;;;;;;;47.00;41.50;;;;;4.75;53.56;99124.50;5017460;28;8871;-78
2023/12/21 04:47:26;;;;;;;;;68.25;55.25;;;;;4.79;53.23;99127.06;5013799;28;8850;-76
2023/12/21 04:49:56;;;;;;;;;78.75;63.50;;;;;4.83;53.07;99126.16;5016065;28;8861;-76
2023/12/21 04:52:25;;;;;;;;;67.25;51.00;;;;;4.82;52.86;99124.47;5045467;28;8854;-77
2023/12/21 04:54:54;;;;;;;;;63.75;51.50;;;;;4.83;53.08;99126.16;5012404;28;8858;-80
2023/12/21 04:57:25;;;;;;;;;65.25;49.75;;;;;4.89;52.98;99131.38;5013645;28;8908;-75
2023/12/21 04:59:54;;;;;;;;;53.25;45.25;;;;;4.93;52.60;99131.34;5012818;28;8855;-77
2023/12/21 05:02:23;;;;;;;;;53.00;44.00;;;;;4.98;52.42;99120.03;4976061;28;8874;-78
2023/12/21 05:04:52;;;;;;;;;48.75;42.25;;;;;5.00;52.35;99119.16;5011324;28;8886;-77
2023/12/21 05:07:21;;;;;;;;;55.25;45.50;;;;;5.05;52.42;99135.63;5013748;28;8947;-77
2023/12/21 05:09:50;;;;;;;;;49.75;43.50;;;;;4.89;52.57;99133.97;5010116;28;9677;-78
2023/12/21 05:12:19;;;;;;;;;47.25;41.50;;;;;4.89;52.68;99133.97;4949215;28;8928;-75
2023/12/21 05:14:49;;;;;;;;;53.50;45.25;;;;;4.90;52.48;99131.34;5032607;28;8863;-75
2023/12/21 05:17:18;;;;;;;;;46.00;40.50;;;;;4.88;52.57;99122.69;5030825;28;8981;-76
2023/12/21 05:19:47;;;;;;;;;59.75;43.25;;;;;4.90;52.31;99120.94;5011794;28;8882;-76
2023/12/21 05:22:16;;;;;;;;;51.25;43.25;;;;;4.87;52.49;99120.97;5014228;28;8892;-76
2023/12/21 05:24:45;;;;;;;;;51.50;44.00;;;;;4.90;52.16;99122.69;5011394;28;8904;-77
2023/12/21 05:27:14;;;;;;;;;44.75;40.75;;;;;4.90;52.34;99125.28;5010486;28;8858;-74
2023/12/21 05:29:43;;;;;;;;;99.00;85.00;;;;;4.91;52.49;99119.22;5009763;28;8874;-77
2023/12/21 05:32:14;;;;;;;;;61.33;48.33;;;;;4.90;52.25;99117.47;5061512;28;9336;-78
2023/12/21 05:34:43;;;;;;;;;62.50;52.25;;;;;4.89;52.18;99116.59;5046083;28;8902;-77
2023/12/21 05:37:12;;;;;;;;;61.00;50.00;;;;;4.89;52.01;99108.78;5030015;28;9680;-76
2023/12/21 05:39:44;;;;;;;;;63.25;52.00;;;;;4.84;52.21;99107.09;5029170;28;8859;-77
2023/12/21 05:42:14;;;;;;;;;61.50;48.25;;;;;4.80;52.07;99108.84;5040650;28;9605;-76
2023/12/21 05:44:43;;;;;;;;;57.00;46.33;;;;;4.78;52.36;99114.94;5011834;28;8856;-77
2023/12/21 05:47:13;;;;;;;;;50.50;43.50;;;;;4.74;52.54;99124.50;4993420;28;8859;-76
2023/12/21 05:49:42;;;;;;;;;87.00;67.67;;;;;4.72;52.30;99134.91;5045570;28;9640;-75
2023/12/21 05:52:12;;;;;;;;;73.25;57.00;;;;;4.72;52.48;99134.06;5056351;28;9101;-78
2023/12/21 05:54:41;;;;;;;;;63.50;51.00;;;;;4.63;52.48;99139.28;5008918;28;8858;-75
2023/12/21 05:57:11;;;;;;;;;61.25;49.25;;;;;4.57;52.33;99137.56;5010168;28;8885;-79
2023/12/21 05:59:40;;;;;;;;;59.75;48.50;;;;;4.56;52.67;99139.31;5008574;28;8909;-79
2023/12/21 06:02:09;;;;;;;;;60.50;48.50;;;;;4.56;53.09;99133.22;5010848;28;8843;-77
2023/12/21 06:04:40;;;;;;;;;47.50;42.00;;;;;4.58;52.61;99136.69;5023564;28;8895;-75
2023/12/21 06:07:09;;;;;;;;;62.00;47.75;;;;;4.59;52.52;99135.81;5009524;28;9615;-76
2023/12/21 06:09:39;;;;;;;;;91.67;75.67;;;;;4.48;53.13;99137.59;5042124;28;9012;-76
2023/12/21 06:12:09;;;;;;;;;66.75;53.00;;;;;4.49;53.14;99136.69;5027887;28;9480;-77
2023/12/21 06:14:38;;;;;;;;;56.25;47.50;;;;;4.52;52.78;99137.56;5033036;28;9574;-76
2023/12/21 06:17:09;;;;;;;;;62.50;50.00;;;;;4.57;52.35;99137.56;5007397;28;10186;-79
2023/12/21 06:19:38;;;;;;;;;54.75;46.50;;;;;4.57;52.72;99140.16;5028124;28;8877;-74
2023/12/21 06:22:08;;;;;;;;;58.75;47.75;;;;;4.61;52.61;99143.63;5029314;28;8832;-78
2023/12/21 06:24:37;;;;;;;;;52.50;44.25;;;;;4.62;52.20;99140.16;5028608;28;8898;-78
2023/12/21 06:27:07;;;;;;;;;54.50;47.00;;;;;4.57;52.35;99134.97;5027004;28;8848;-77
2023/12/21 06:29:36;;;;;;;;;63.75;49.50;;;;;4.52;52.71;99128.91;5027103;28;9001;-77
2023/12/21 06:32:06;;;;;;;;;63.50;51.50;;;;;4.57;52.69;99127.16;5016732;28;8866;-80
2023/12/21 06:34:36;;;;;;;;;68.25;56.25;;;;;4.61;52.63;99118.47;5013107;28;8894;-78
2023/12/21 06:37:07;;;;;;;;;71.75;56.00;;;;;4.64;52.72;99118.47;5029895;28;9708;-78
2023/12/21 06:39:37;;;;;;;;;71.75;57.50;;;;;4.67;52.43;99123.63;5028924;28;8894;-76
2023/12/21 06:42:07;;;;;;;;;71.00;57.00;;;;;4.69;52.47;99114.06;5044230;28;8848;-78
2023/12/21 06:44:37;;;;;;;;;66.75;54.50;;;;;4.70;52.58;99115.81;5012284;28;8859;-78
2023/12/21 06:47:07;;;;;;;;;66.25;54.75;;;;;4.78;52.42;99113.19;5016304;28;9670;-82
2023/12/21 06:49:38;;;;;;;;;61.75;51.50;;;;;4.84;52.16;99112.28;4993851;28;8868;-78
2023/12/21 06:52:07;;;;;;;;;65.75;53.50;;;;;4.92;52.34;99102.69;5018622;28;8948;-79
2023/12/21 06:54:37;;;;;;;;;65.50;53.75;;;;;4.98;52.38;99113.09;5022344;28;8922;-80
2023/12/21 06:57:07;;;;;;;;;63.00;52.50;;;;;5.06;52.03;99115.66;5021243;28;8862;-82
2023/12/21 06:59:36;;;;;;;;;61.50;51.75;;;;;5.14;51.77;99109.53;5018654;28;8872;-80
2023/12/21 07:02:06;;;;;;;;;63.25;51.25;;;;;5.24;52.20;99105.13;5009131;28;8892;-80
2023/12/21 07:04:35;;;;;;;;;63.25;49.00;;;;;5.32;51.64;99092.94;5007620;28;9672;-79
2023/12/21 07:07:05;;;;;;;;;68.75;56.00;;;;;5.42;51.28;99093.75;5010266;28;8854;-79
2023/12/21 07:09:37;;;;;;;;;60.50;51.00;;;;;5.51;51.01;99090.22;5024609;28;8980;-79
2023/12/21 07:12:06;;;;;;;;;67.50;54.50;;;;;5.62;51.18;99096.19;5048402;28;8880;-80
2023/12/21 07:14:39;;;;;;;;;68.25;53.00;;;;;5.77;50.63;99104.78;5010068;28;8872;-81
2023/12/21 07:17:09;;;;;;;;;65.00;53.00;;;;;5.79;50.62;99101.25;5010114;28;8868;-79
2023/12/21 07:19:38;;;;;;;;;65.75;54.25;;;;;5.82;49.82;99101.25;5009930;28;8890;-83
2023/12/21 07:22:08;;;;;;;;;63.75;52.25;;;;;5.80;49.70;99105.63;4978632;28;8879;-81
2023/12/21 07:24:38;;;;;;;;;68.50;55.25;;;;;5.84;50.02;99099.47;5019555;28;8859;-82
2023/12/21 07:27:07;;;;;;;;;66.25;54.75;;;;;5.86;49.79;99095.13;5008002;28;8861;-81
2023/12/21 07:29:36;;;;;;;;;62.25;52.75;;;;;5.93;49.71;99088.13;5019213;28;8921;-82
2023/12/21 07:32:06;;;;;;;;;62.00;51.75;;;;;5.92;49.42;99081.16;5042696;28;8913;-80
2023/12/21 07:34:35;;;;;;;;;66.00;53.25;;;;;5.88;49.47;99077.72;4952682;28;9640;-81
2023/12/21 07:37:05;;;;;;;;;62.25;52.00;;;;;5.86;49.42;99073.41;5015890;28;8858;-81
2023/12/21 07:39:34;;;;;;;;;62.75;52.50;;;;;5.87;49.57;99067.31;5025473;28;8862;-81
2023/12/21 07:42:09;;;;;;;;;57.75;49.25;;;;;5.91;49.47;99077.69;4991063;28;8866;-81
2023/12/21 07:44:38;;;;;;;;;59.00;49.75;;;;;5.88;49.00;99079.47;4993569;28;8859;-83
2023/12/21 07:47:07;;;;;;;;;56.50;47.50;;;;;5.86;48.95;99076.84;4984364;28;8893;-82
2023/12/21 07:49:36;;;;;;;;;56.00;46.75;;;;;5.89;48.86;99076.84;5007710;28;8880;-82
2023/12/21 07:52:08;;;;;;;;;59.00;48.50;;;;;5.96;48.71;99087.22;5017950;28;9092;-83
2023/12/21 07:54:37;;;;;;;;;51.00;43.25;;;;;6.02;48.86;99081.91;5003017;28;8983;-83
2023/12/21 07:57:10;;;;;;;;;51.50;44.25;;;;;6.06;48.67;99079.28;4973790;28;8922;-81
2023/12/21 07:59:40;;;;;;;;;55.50;45.50;;;;;6.05;48.25;99074.94;4996039;28;8870;-82
2023/12/21 08:02:09;;;;;;;;;57.25;47.75;;;;;6.04;47.87;99070.63;4964375;28;9507;-81
2023/12/21 08:04:42;;;;;;;;;63.00;49.00;;;;;6.04;48.25;99054.97;4993395;28;8864;-83
2023/12/21 08:07:11;;;;;;;;;59.25;47.50;;;;;6.13;47.87;99059.19;4976391;28;8874;-82
2023/12/21 08:09:40;;;;;;;;;59.75;48.75;;;;;6.33;47.92;99051.16;4976136;28;8976;-81
2023/12/21 08:12:13;;;;;;;;;54.50;45.50;;;;;6.54;48.08;99052.63;4974749;28;8886;-81
2023/12/21 08:14:42;;;;;;;;;61.00;50.00;;;;;6.74;46.94;99057.63;4958924;28;8857;-81
2023/12/21 08:17:12;;;;;;;;;56.25;46.50;;;;;6.66;46.63;99057.72;4975027;28;8876;-81
2023/12/21 08:19:41;;;;;;;;;58.75;44.50;;;;;6.90;46.58;99060.91;4975222;28;8860;-82
2023/12/21 08:22:10;;;;;;;;;53.50;44.00;;;;;7.01;46.08;99059.00;4991000;28;8860;-82
2023/12/21 08:24:39;;;;;;;;;54.75;46.75;;;;;7.13;45.07;99047.50;5001132;28;8865;-80
2023/12/21 08:27:10;;;;;;;;;55.00;45.00;;;;;7.12;45.08;99048.41;4985160;28;8865;-81
2023/12/21 08:29:39;;;;;;;;;48.50;40.25;;;;;7.28;45.09;99043.81;4997704;28;8868;-81
2023/12/21 08:32:09;;;;;;;;;55.75;46.75;;;;;7.37;44.94;99046.28;4997434;28;8856;-83
2023/12/21 08:34:38;;;;;;;;;50.75;42.00;;;;;7.45;45.17;99049.63;5008572;28;8854;-82
2023/12/21 08:37:07;;;;;;;;;49.75;42.25;;;;;7.53;44.55;99052.09;4958334;28;8858;-82
2023/12/21 08:39:36;;;;;;;;;50.00;41.00;;;;;7.59;44.39;99045.91;4973189;28;8957;-82
2023/12/21 08:42:06;;;;;;;;;54.50;44.25;;;;;7.67;44.60;99034.44;4995559;28;8874;-82
2023/12/21 08:44:36;;;;;;;;;54.00;44.50;;;;;7.75;44.43;99038.69;4995508;28;8880;-81
2023/12/21 08:47:07;;;;;;;;;53.75;44.00;;;;;7.76;44.17;99030.81;5030711;28;8865;-82
2023/12/21 08:49:36;;;;;;;;;50.50;42.25;;;;;7.79;44.78;99032.50;4994285;28;8864;-82
2023/12/21 08:52:06;;;;;;;;;42.75;38.75;;;;;7.84;44.37;99031.53;5016080;28;8885;-82
2023/12/21 08:54:35;;;;;;;;;55.75;45.25;;;;;7.91;43.96;99027.06;4997530;28;8883;-82
2023/12/21 08:57:05;;;;;;;;;46.25;41.00;;;;;7.99;44.24;99025.16;5010451;28;8885;-81
2023/12/21 08:59:34;;;;;;;;;55.75;45.75;;;;;8.11;44.14;99026.66;5010134;28;8978;-82
2023/12/21 09:02:05;;;;;;;;;49.50;39.75;;;;;8.19;43.37;99018.66;4945873;28;8962;-81
2023/12/21 09:04:34;;;;;;;;;49.25;42.75;;;;;8.26;43.80;99017.66;4993764;28;8848;-81
2023/12/21 09:07:03;;;;;;;;;53.50;41.00;;;;;8.10;42.47;99010.97;5010936;28;8856;-80
2023/12/21 09:09:32;;;;;;;;;38.50;37.00;;;;;8.27;43.25;99014.16;4963557;28;8846;-81
2023/12/21 09:12:02;;;;;;;;;45.25;38.00;;;;;8.19;42.47;99008.19;4973835;28;8866;-81
2023/12/21 09:14:31;;;;;;;;;48.00;42.75;;;;;8.22;42.99;99002.91;5005835;28;9136;-81
2023/12/21 09:17:00;;;;;;;;;44.25;37.75;;;;;8.26;42.34;98997.56;5007147;28;8862;-81
2023/12/21 09:19:32;;;;;;;;;46.75;39.50;;;;;7.99;42.57;98990.28;4997399;28;8863;-81
2023/12/21 09:22:02;;;;;;;;;49.25;39.25;;;;;7.98;42.25;98989.38;5012275;28;8930;-80
2023/12/21 09:24:31;;;;;;;;;48.00;41.00;;;;;7.96;43.25;98980.72;5045300;28;8949;-81
2023/12/21 09:27:03;;;;;;;;;33.50;30.50;;;;;7.72;43.30;98982.06;5012544;28;8868;-82
2023/12/21 09:29:31;;;;;;;;;49.50;43.00;;;;;7.83;43.28;98974.84;5012808;28;8876;-82
2023/12/21 09:32:01;;;;;;;;;49.25;40.50;;;;;7.86;43.35;98966.94;5022355;28;9006;-81
2023/12/21 09:34:34;;;;;;;;;45.75;41.00;;;;;7.87;43.05;98958.22;5029621;28;8868;-80
2023/12/21 09:37:04;;;;;;;;;56.00;45.00;;;;;7.90;43.27;98966.91;5013682;28;8965;-81
2023/12/21 09:39:34;;;;;;;;;58.75;48.25;;;;;7.69;43.78;98955.94;5013599;28;8866;-83
2023/12/21 09:42:05;;;;;;;;;51.25;42.00;;;;;7.69;42.91;98953.31;5030212;28;8873;-82
2023/12/21 09:44:35;;;;;;;;;46.75;39.25;;;;;7.80;42.54;98946.13;5016562;28;8880;-82
2023/12/21 09:47:05;;;;;;;;;41.25;35.25;;;;;7.92;42.59;98934.56;5006245;28;8990;-81
2023/12/21 09:49:36;;;;;;;;;35.00;33.00;;;;;7.90;42.30;98927.63;5015598;28;8886;-81
2023/12/21 09:52:08;;;;;;;;;33.20;31.20;;;;;7.87;42.04;98923.31;5014838;28;8885;-81
2023/12/21 09:54:41;;;;;;;;;31.40;27.80;;;;;7.57;41.39;98923.03;5011830;28;8850;-83
2023/12/21 09:57:11;;;;;;;;;30.20;28.80;;;;;7.63;41.40;98915.06;5010376;28;8955;-82
2023/12/21 09:59:40;;;;;;;;;19.00;18.60;;;;;7.29;40.58;98907.84;5026356;28;9753;-82
2023/12/21 10:02:12;;;;;;;;;27.40;25.00;;;;;7.57;40.73;98896.00;5010597;28;8857;-83
2023/12/21 10:04:45;;;;;;;;;32.80;32.00;;;;;7.29;41.49;98883.47;5026377;28;8861;-84
2023/12/21 10:07:15;;;;;;;;;33.80;33.00;;;;;7.59;41.43;98888.97;5026870;28;8870;-81
2023/12/21 10:09:45;;;;;;;;;22.80;22.80;;;;;7.42;40.91;98890.19;5010172;28;8975;-82
2023/12/21 10:12:15;;;;;;;;;23.40;22.00;;;;;7.51;40.21;98883.03;5010149;28;8976;-80
2023/12/21 10:14:44;;;;;;;;;22.80;21.20;;;;;7.64;40.35;98885.38;5010276;28;8870;-82
2023/12/21 10:17:13;;;;;;;;;22.80;22.20;;;;;7.91;39.92;98887.47;4996927;28;8882;-80
2023/12/21 10:19:46;;;;;;;;;15.00;14.20;;;;;7.97;38.47;98874.28;5024658;28;8896;-80
2023/12/21 10:22:17;;;;;;;;;11.40;11.00;;;;;7.76;38.97;98863.38;5014547;28;9762;-81
2023/12/21 10:24:49;;;;;;;;;13.40;10.20;;;;;7.98;38.47;98860.28;4995175;28;8914;-81
2023/12/21 10:27:21;;;;;;;;;16.80;12.60;;;;;8.15;37.81;98860.78;5010911;28;8880;-83
2023/12/21 10:29:54;;;;;;;;;14.60;14.60;;;;;8.34;37.77;98845.53;5012659;28;8856;-81
2023/12/21 10:32:24;;;;;;;;;13.40;13.40;;;;;8.27;37.21;98836.09;5012541;28;8868;-82
2023/12/21 10:34:58;;;;;;;;;11.00;9.80;;;;;8.34;37.50;98840.31;5012245;28;8875;-83
2023/12/21 10:37:46;;;;;;;;;8.00;7.60;;;;;8.59;37.46;98829.25;5010387;28;8842;-80
2023/12/21 10:40:16;;;;;;;;;10.40;9.20;;;;;8.70;36.74;98835.09;4976379;28;9132;-81
2023/12/21 10:42:47;;;;;;;;;8.80;8.60;;;;;8.76;36.48;98818.34;5009136;28;8862;-82
2023/12/21 10:45:18;;;;;;;;;8.40;8.40;;;;;8.78;36.48;98812.19;4975995;28;8922;-82
2023/12/21 10:48:08;;;;;;;;;10.60;10.00;;;;;8.92;35.91;98811.84;4963353;28;8852;-83
2023/12/21 10:50:40;;;;;;;;;11.40;9.60;;;;;8.80;36.47;98801.69;4956590;28;8841;-82
2023/12/21 10:53:10;;;;;;;;;9.00;8.00;;;;;8.70;35.93;98794.94;5004717;28;8840;-82
2023/12/21 10:55:42;;;;;;;;;11.80;10.00;;;;;8.63;36.41;98783.75;4991037;28;8872;-80
2023/12/21 10:58:12;;;;;;;;;10.40;9.80;;;;;8.94;36.40;98778.56;5004522;28;8876;-81
2023/12/21 11:00:44;;;;;;;;;10.20;9.00;;;;;9.06;35.58;98790.47;4956096;28;8880;-81
2023/12/21 11:03:16;;;;;;;;;9.40;8.40;;;;;9.17;35.07;98783.19;5007856;28;8866;-81
2023/12/21 11:05:48;;;;;;;;;13.00;12.60;;;;;9.38;35.38;98784.34;5010474;28;8940;-81
2023/12/21 11:08:20;;;;;;;;;12.40;9.00;;;;;8.98;34.84;98777.59;5010748;28;8878;-83
2023/12/21 11:10:51;;;;;;;;;13.40;12.20;;;;;9.12;35.22;98768.47;4991153;28;8886;-83
2023/12/21 11:13:21;;;;;;;;;12.80;12.00;;;;;9.25;35.34;98754.13;4990857;28;8944;-80
2023/12/21 11:15:50;;;;;;;;;11.40;11.40;;;;;9.33;34.97;98751.28;5000684;28;9718;-82
2023/12/21 11:18:23;;;;;;;;;14.20;12.40;;;;;9.49;34.74;98755.19;5047160;28;9588;-79
2023/12/21 11:20:59;;;;;;;;;12.20;11.80;;;;;9.65;34.88;98745.16;5063296;28;8896;-84
2023/12/21 11:23:29;;;;;;;;;11.40;11.40;;;;;9.71;34.86;98738.88;5030536;28;9000;-83
2023/12/21 11:25:59;;;;;;;;;12.40;11.40;;;;;9.64;34.76;98742.56;5045878;28;8923;-82
2023/12/21 11:28:32;;;;;;;;;20.00;18.00;;;;;9.76;34.81;98731.69;5029905;28;8865;-84
2023/12/21 11:31:13;;;;;;;;;16.00;14.20;;;;;9.90;34.45;98726.88;5025506;28;8930;-82
2023/12/21 11:33:43;;;;;;;;;14.60;14.20;;;;;9.79;34.56;98715.84;5048356;28;8856;-81
2023/12/21 11:36:25;;;;;;;;;12.00;11.60;;;;;9.59;34.41;98713.81;5035881;28;8863;-83
2023/12/21 11:38:57;;;;;;;;;18.40;17.20;;;;;9.74;34.78;98708.09;5017151;28;8860;-82
2023/12/21 11:41:27;;;;;;;;;12.40;12.40;;;;;9.41;34.74;98709.97;5016630;28;8884;-83
2023/12/21 11:44:02;;;;;;;;;13.40;13.40;;;;;9.66;34.48;98699.63;5019617;28;8947;-82
2023/12/21 11:46:33;;;;;;;;;17.60;15.20;;;;;9.34;34.51;98698.78;5036191;28;8969;-84